Bedford, MA

10:24 AM EDT on May 22, 2015 (GMT -0400)
Old Depot Area | | Change Station
CLOSE
Current Station
Personal Weather Station
Location: Bedford, MA
Elevation: 130 ft
Nearby Weather Stations

Elev 130 ft 42.49 °N, 71.28 °W | Updated 14 minutes ago

Clear
Clear
67.9 °F
Feels Like 67.9 °F
N
1.1
Wind Variable Wind from SSE
Gusts 1.1 mph

Today
High -- | Low -- °F
--% Chance of Precip.
Yesterday
High -- | Low -- °F
Precip. -- in
5:17 AM 8:06 PM
Waxing Crescent, 21% visible
Pressure 29.84 in
Visibility 10.0 miles
Clouds Clear
Dew Point 45 °F
Humidity 44%
Rainfall 0.00 in
Snow Depth Not available.
UV 7 out of 12
Pollen 9.90 out of 12
Air Quality Not available.
Flu Activity Widespread
METAR KBED 221356Z 34008KT 10SM CLR 19/02 A2981 RMK AO2 SLP105 T01890017 $

More Conditions Fewer Conditions

Pressure 29.84 in
Visibility 10.0 miles
Clouds Clear
Dew Point 45 °F
Humidity 44%
Rainfall 0.00 in
Snow Depth Not available.
UV 7 out of 12
Pollen 9.90 out of 12
Air Quality Not available.
Flu Activity Widespread
METAR KBED 221356Z 34008KT 10SM CLR 19/02 A2981 RMK AO2 SLP105 T01890017 $

More Conditions Fewer Conditions

10-Day Weather Forecast

Almanac

Astronomy

May. 22, 2015 Rise Set
Actual Time
Civil Twilight
Nautical Twilight
Astronomical Twilight
Moon
Length of Visible Light
Length of Day
Tomorrow will be .
, % of the Moon is Illuminated

Today's Extremes

State Highs State Lows

Community

WunderPhotos

Upload Photos

1,823,229 photos uploaded!

WunderBlogs® & News

Nearby

Air Quality

  Air Quality AQ Index Pollutant
Not available.

Snow Depth

Station Depth Elevation

Earthquake Activity

City Distance Mag. Time & Date
Minimum magnitude displayed is 2.5.

Coastal Water Temperatures

Place Temperature

Stations

Nearby Weather Stations

Station Location Temp. Windchill Dew Point Humidity Wind Precip. Elev Updated Type